Time;durP1;ratioP1;P1;durP2;ratioP2;P2;SDS_P1;SDS_P2;PMS_P1;PMS_P2;Temp;Humidity;BMP_temperature;BMP_pressure;BME280_temperature;BME280_humidity;BME280_pressure;Samples;Min_cycle;Max_cycle;Signal;HPM_P1;HPM_P2
2024/01/17 00:02:00;;;;;;;10.35;3.90;;;0.00;99.90;;;;;;5034705;28;20473;-70
2024/01/17 00:04:27;;;;;;;3.25;2.08;;;0.10;99.90;;;;;;5035070;28;20026;-70
2024/01/17 00:06:55;;;;;;;1.88;0.80;;;-0.10;99.90;;;;;;5035239;28;20133;-69
2024/01/17 00:09:21;;;;;;;3.45;2.20;;;0.00;99.90;;;;;;5034796;28;20044;-70
2024/01/17 00:11:49;;;;;;;0.40;0.40;;;0.00;99.90;;;;;;5034972;28;20436;-71
2024/01/17 00:14:15;;;;;;;6.60;2.20;;;-0.10;99.90;;;;;;5034403;28;20029;-70
2024/01/17 00:16:41;;;;;;;3.85;3.28;;;-0.10;99.90;;;;;;5034904;28;20036;-69
2024/01/17 00:19:07;;;;;;;2.25;2.15;;;-0.10;99.90;;;;;;5033544;28;20034;-69
2024/01/17 00:21:33;;;;;;;6.00;2.45;;;-0.20;99.90;;;;;;5034832;28;20074;-70
2024/01/17 00:23:58;;;;;;;18.33;5.03;;;-0.20;99.90;;;;;;5033474;28;20478;-70
2024/01/17 00:26:25;;;;;;;4.82;2.60;;;-0.10;99.90;;;;;;5034561;28;20116;-69
2024/01/17 00:28:51;;;;;;;5.15;3.50;;;-0.20;99.90;;;;;;5034252;28;20112;-69
2024/01/17 00:31:17;;;;;;;5.93;2.63;;;-0.30;99.90;;;;;;5034518;28;20466;-68
2024/01/17 00:33:42;;;;;;;6.30;4.43;;;-0.40;99.90;;;;;;5034568;28;20111;-70
2024/01/17 00:36:08;;;;;;;0.30;0.30;;;-0.30;99.90;;;;;;5016391;28;20021;-70
2024/01/17 00:38:34;;;;;;;10.30;1.83;;;-0.20;99.90;;;;;;5034510;28;20529;-69
2024/01/17 00:41:00;;;;;;;1.33;1.10;;;-0.30;99.90;;;;;;5034337;28;20052;-70
2024/01/17 00:43:26;;;;;;;1.63;1.52;;;-0.30;99.90;;;;;;5034053;28;20032;-70
2024/01/17 00:45:52;;;;;;;4.82;3.10;;;-0.30;99.90;;;;;;5034269;28;20070;-70
2024/01/17 00:48:18;;;;;;;3.78;2.45;;;-0.40;99.90;;;;;;5032661;28;20041;-70
2024/01/17 00:50:45;;;;;;;1.83;1.40;;;-0.30;99.90;;;;;;5034151;28;20032;-70
2024/01/17 00:53:10;;;;;;;3.63;1.98;;;-0.30;99.90;;;;;;5033956;28;20030;-69
2024/01/17 00:55:36;;;;;;;9.68;3.00;;;-0.30;99.90;;;;;;5033870;28;20041;-69
2024/01/17 00:58:02;;;;;;;3.13;2.38;;;-0.20;99.90;;;;;;5033075;28;20025;-70
2024/01/17 01:00:28;;;;;;;1.27;1.05;;;-0.20;99.90;;;;;;5033666;28;20033;-69
2024/01/17 01:02:54;;;;;;;2.40;1.45;;;-0.30;99.90;;;;;;5033965;28;20371;-70
2024/01/17 01:05:20;;;;;;;0.85;0.73;;;-0.30;99.90;;;;;;5026809;28;20041;-69
2024/01/17 01:07:47;;;;;;;6.50;2.75;;;-0.20;99.90;;;;;;5033661;28;20444;-70
2024/01/17 01:10:13;;;;;;;14.70;5.35;;;-0.20;99.90;;;;;;5033804;28;20481;-69
2024/01/17 01:12:39;;;;;;;2.13;1.23;;;-0.30;99.90;;;;;;5032651;28;20025;-70
2024/01/17 01:15:06;;;;;;;5.82;0.65;;;-0.20;99.90;;;;;;5033954;28;20025;-70
2024/01/17 01:17:31;;;;;;;0.73;0.73;;;-0.30;99.90;;;;;;5033520;28;20026;-69
2024/01/17 01:19:57;;;;;;;2.00;1.42;;;-0.20;99.90;;;;;;5033721;28;20489;-70
2024/01/17 01:22:23;;;;;;;3.75;1.95;;;-0.20;99.90;;;;;;5033496;28;20438;-69
2024/01/17 01:24:50;;;;;;;0.20;0.20;;;-0.30;99.90;;;;;;5033637;28;20421;-70
2024/01/17 01:27:16;;;;;;;19.80;2.75;;;-0.30;99.90;;;;;;5033364;28;20040;-69
2024/01/17 01:29:41;;;;;;;1.85;1.75;;;-0.20;99.90;;;;;;5033440;28;20037;-69
2024/01/17 01:32:09;;;;;;;0.25;0.25;;;-0.20;99.90;;;;;;5033388;28;20030;-70
2024/01/17 01:34:35;;;;;;;0.50;0.50;;;-0.30;99.90;;;;;;5033335;28;20096;-69
2024/01/17 01:37:01;;;;;;;0.43;0.43;;;-0.20;99.90;;;;;;5032335;28;20033;-68
2024/01/17 01:39:27;;;;;;;0.63;0.63;;;-0.30;99.90;;;;;;5032931;28;20108;-70
2024/01/17 01:41:53;;;;;;;6.85;1.00;;;-0.20;99.90;;;;;;5032426;28;20455;-70
2024/01/17 01:44:19;;;;;;;0.43;0.43;;;-0.20;99.90;;;;;;5033828;28;20026;-70
2024/01/17 01:46:47;;;;;;;0.52;0.50;;;-0.20;99.90;;;;;;5032971;28;20026;-69
2024/01/17 01:49:16;;;;;;;1.20;1.10;;;-0.20;99.90;;;;;;5015468;28;20429;-70
2024/01/17 01:51:44;;;;;;;1.50;1.23;;;-0.10;99.90;;;;;;5031604;28;20021;-70
2024/01/17 01:54:13;;;;;;;0.30;0.30;;;-0.10;99.90;;;;;;5032964;28;20128;-69
2024/01/17 01:56:41;;;;;;;1.75;1.05;;;-0.10;99.90;;;;;;5032895;28;20734;-69
2024/01/17 01:59:08;;;;;;;0.65;0.28;;;-0.20;99.90;;;;;;5033078;28;20033;-70
2024/01/17 02:01:35;;;;;;;0.10;0.10;;;-0.20;99.90;;;;;;5032740;28;20480;-69
2024/01/17 02:04:02;;;;;;;7.95;3.20;;;-0.20;99.90;;;;;;5032879;28;20024;-69
2024/01/17 02:06:33;;;;;;;1.95;1.30;;;-0.30;99.90;;;;;;5033120;28;20029;-69
2024/01/17 02:09:00;;;;;;;3.13;2.05;;;-0.30;99.90;;;;;;5032427;28;20120;-70
2024/01/17 02:11:29;;;;;;;0.68;0.60;;;-0.40;99.90;;;;;;5033033;28;20122;-70
2024/01/17 02:13:55;;;;;;;2.17;1.13;;;-0.40;99.90;;;;;;5032863;28;20079;-70
2024/01/17 02:16:23;;;;;;;0.50;0.50;;;-0.30;99.90;;;;;;5031764;28;20029;-69
2024/01/17 02:18:50;;;;;;;0.20;0.20;;;-0.20;99.90;;;;;;5032684;28;20030;-70
2024/01/17 02:21:16;;;;;;;0.10;0.10;;;-0.20;99.90;;;;;;5032945;28;20087;-69
2024/01/17 02:23:42;;;;;;;2.60;1.63;;;-0.20;99.90;;;;;;5032538;28;20030;-69
2024/01/17 02:26:09;;;;;;;2.08;1.52;;;-0.10;99.90;;;;;;5037131;28;20029;-69
2024/01/17 02:28:35;;;;;;;0.40;0.40;;;-0.20;99.90;;;;;;5035311;28;20036;-69
2024/01/17 02:31:03;;;;;;;0.25;0.25;;;-0.10;99.90;;;;;;5036804;28;20025;-70
2024/01/17 02:33:29;;;;;;;1.77;1.02;;;-0.20;99.90;;;;;;5036882;28;20037;-69
2024/01/17 02:35:55;;;;;;;1.25;0.35;;;-0.10;99.90;;;;;;5037035;28;20025;-70
2024/01/17 02:38:21;;;;;;;1.85;0.70;;;-0.10;99.90;;;;;;5036177;28;20058;-70
2024/01/17 02:40:47;;;;;;;1.85;1.75;;;-0.10;99.90;;;;;;5036608;28;20474;-70
2024/01/17 02:43:13;;;;;;;1.67;1.08;;;-0.10;99.90;;;;;;5036530;28;20091;-70
2024/01/17 02:45:38;;;;;;;1.85;0.90;;;-0.10;99.90;;;;;;5036717;28;20025;-70
2024/01/17 02:48:04;;;;;;;1.20;1.10;;;-0.10;99.90;;;;;;5036086;28;20067;-71
2024/01/17 02:50:31;;;;;;;1.35;1.10;;;-0.10;99.90;;;;;;5036584;28;20063;-70
2024/01/17 02:52:57;;;;;;;0.45;0.45;;;-0.20;99.90;;;;;;5036188;28;20485;-70
2024/01/17 02:55:23;;;;;;;0.10;0.10;;;-0.20;99.90;;;;;;5036386;28;20108;-70
2024/01/17 02:57:50;;;;;;;0.40;0.40;;;-0.10;99.90;;;;;;5036375;28;20025;-70
2024/01/17 03:00:17;;;;;;;0.30;0.30;;;-0.10;99.90;;;;;;5036129;28;20545;-70
2024/01/17 03:02:43;;;;;;;0.20;0.20;;;0.00;99.90;;;;;;5036203;28;20025;-69
2024/01/17 03:05:11;;;;;;;0.47;0.47;;;0.00;99.90;;;;;;5030961;28;20099;-70
2024/01/17 03:07:37;;;;;;;1.33;1.17;;;0.00;99.90;;;;;;5033069;28;20030;-69
2024/01/17 03:10:03;;;;;;;0.10;0.10;;;0.00;99.90;;;;;;5035791;28;20028;-70
2024/01/17 03:12:29;;;;;;;1.30;1.27;;;-0.10;99.90;;;;;;5036192;28;20449;-70
2024/01/17 03:14:55;;;;;;;0.03;0.03;;;0.00;99.90;;;;;;5035894;28;20021;-69
2024/01/17 03:17:21;;;;;;;1.95;1.85;;;0.00;99.90;;;;;;5035919;28;20047;-70
2024/01/17 03:19:48;;;;;;;0.00;0.00;;;0.10;99.90;;;;;;5034788;28;20426;-70
2024/01/17 03:22:16;;;;;;;0.10;0.10;;;0.20;99.90;;;;;;5035816;28;20025;-70
2024/01/17 03:24:45;;;;;;;0.25;0.25;;;0.20;99.90;;;;;;5035749;28;20540;-69
2024/01/17 03:27:12;;;;;;;0.38;0.38;;;0.30;99.90;;;;;;5034371;28;20390;-69
2024/01/17 03:29:38;;;;;;;0.10;0.10;;;0.10;99.90;;;;;;5035428;28;20034;-70
2024/01/17 03:32:04;;;;;;;0.10;0.10;;;0.10;99.90;;;;;;5035880;28;20034;-69
2024/01/17 03:34:30;;;;;;;0.15;0.15;;;0.20;99.90;;;;;;5035692;28;20048;-70
2024/01/17 03:36:56;;;;;;;0.00;0.00;;;0.00;99.90;;;;;;5034773;28;20021;-70
2024/01/17 03:39:21;;;;;;;0.10;0.10;;;0.00;99.90;;;;;;5034219;28;20029;-70
2024/01/17 03:41:47;;;;;;;0.10;0.10;;;0.10;99.90;;;;;;5008319;28;20370;-70
2024/01/17 03:44:13;;;;;;;0.57;0.30;;;0.10;99.90;;;;;;5035294;28;20036;-70
2024/01/17 03:46:39;;;;;;;0.00;0.00;;;0.20;99.90;;;;;;5035623;28;20053;-70
2024/01/17 03:49:05;;;;;;;0.00;0.00;;;0.30;99.90;;;;;;5032185;28;20498;-70
2024/01/17 03:51:30;;;;;;;0.10;0.10;;;0.30;99.90;;;;;;5002590;28;20026;-70
2024/01/17 03:53:56;;;;;;;0.00;0.00;;;0.30;99.90;;;;;;5002647;28;20026;-69
2024/01/17 03:56:23;;;;;;;0.10;0.10;;;0.30;99.90;;;;;;5006180;28;20034;-71
2024/01/17 03:58:49;;;;;;;0.30;0.30;;;0.30;99.90;;;;;;5014708;28;20029;-69
2024/01/17 04:01:15;;;;;;;0.00;0.00;;;0.20;99.90;;;;;;5014917;28;20022;-71
2024/01/17 04:03:41;;;;;;;0.03;0.03;;;0.20;99.90;;;;;;5015162;28;20032;-70
2024/01/17 04:06:07;;;;;;;0.10;0.10;;;0.20;99.90;;;;;;5014451;28;20097;-70
2024/01/17 04:08:33;;;;;;;0.00;0.00;;;0.20;99.90;;;;;;5014959;28;20509;-70
2024/01/17 04:10:59;;;;;;;0.00;0.00;;;0.30;99.90;;;;;;5014879;28;20068;-71
2024/01/17 04:13:25;;;;;;;0.00;0.00;;;0.30;99.90;;;;;;5013623;28;20422;-70
2024/01/17 04:15:51;;;;;;;0.20;0.20;;;0.30;99.90;;;;;;5034005;28;20025;-69
2024/01/17 04:18:17;;;;;;;0.03;0.03;;;0.30;99.90;;;;;;5034522;28;20436;-69
2024/01/17 04:20:43;;;;;;;0.10;0.10;;;0.20;99.90;;;;;;5033987;28;20397;-70
2024/01/17 04:23:09;;;;;;;0.10;0.10;;;0.20;99.90;;;;;;5034470;28;20128;-70
2024/01/17 04:25:35;;;;;;;0.17;0.17;;;0.20;99.90;;;;;;5034351;28;20033;-69
2024/01/17 04:28:06;;;;;;;0.10;0.10;;;0.20;99.90;;;;;;5028979;28;20073;-70
2024/01/17 04:30:33;;;;;;;0.05;0.05;;;0.30;99.90;;;;;;5028610;28;20040;-70
2024/01/17 04:33:00;;;;;;;0.10;0.10;;;0.30;99.90;;;;;;5034320;28;20026;-70
2024/01/17 04:35:26;;;;;;;0.00;0.00;;;0.30;99.90;;;;;;5033967;28;20438;-69
2024/01/17 04:37:53;;;;;;;0.10;0.10;;;0.20;99.90;;;;;;5034212;28;20223;-71
2024/01/17 04:40:19;;;;;;;0.10;0.10;;;0.30;99.90;;;;;;5033961;28;20032;-70
2024/01/17 04:42:48;;;;;;;0.40;0.40;;;0.30;99.90;;;;;;5034156;28;20041;-70
2024/01/17 04:45:17;;;;;;;0.03;0.03;;;0.30;99.90;;;;;;5034075;28;20033;-70
2024/01/17 04:47:44;;;;;;;0.00;0.00;;;0.20;99.90;;;;;;5032979;28;20030;-70
2024/01/17 04:50:13;;;;;;;1.02;0.95;;;0.20;99.90;;;;;;5033598;28;20498;-70
2024/01/17 04:52:39;;;;;;;0.05;0.05;;;0.30;99.90;;;;;;5033853;28;20029;-70
2024/01/17 04:55:07;;;;;;;2.13;1.88;;;0.20;99.90;;;;;;5033998;28;20037;-69
2024/01/17 04:57:34;;;;;;;0.10;0.10;;;0.10;99.90;;;;;;5033813;28;20056;-70
2024/01/17 04:59:59;;;;;;;0.10;0.10;;;0.20;99.90;;;;;;5033807;28;20071;-71
2024/01/17 05:02:25;;;;;;;0.10;0.10;;;0.20;99.90;;;;;;5033428;28;20080;-70
2024/01/17 05:04:51;;;;;;;1.05;1.00;;;0.20;99.90;;;;;;5033815;28;20406;-70
2024/01/17 05:07:17;;;;;;;0.10;0.10;;;0.30;99.90;;;;;;5034112;28;20022;-71
2024/01/17 05:09:42;;;;;;;0.00;0.00;;;0.30;99.90;;;;;;5033479;28;20486;-70
2024/01/17 05:12:08;;;;;;;0.10;0.10;;;0.30;99.90;;;;;;5033880;28;20024;-70
2024/01/17 05:14:34;;;;;;;0.10;0.10;;;0.30;99.90;;;;;;5033719;28;20036;-70
2024/01/17 05:17:01;;;;;;;1.48;0.60;;;0.30;99.90;;;;;;5033354;28;20029;-70
2024/01/17 05:19:26;;;;;;;1.65;1.55;;;0.30;99.90;;;;;;5033742;28;20025;-71
2024/01/17 05:21:52;;;;;;;0.28;0.28;;;0.20;99.90;;;;;;5033594;28;20083;-70
2024/01/17 05:24:18;;;;;;;0.43;0.32;;;0.20;99.90;;;;;;5033731;28;20512;-70
2024/01/17 05:26:46;;;;;;;1.08;1.08;;;0.20;99.90;;;;;;5033714;28;20216;-69
2024/01/17 05:29:11;;;;;;;1.58;1.48;;;0.00;99.90;;;;;;5031893;28;20036;-70
2024/01/17 05:31:37;;;;;;;0.40;0.40;;;0.00;99.90;;;;;;5033087;28;20037;-70
2024/01/17 05:34:03;;;;;;;0.90;0.35;;;0.00;99.90;;;;;;5033292;28;20029;-70
2024/01/17 05:36:29;;;;;;;2.30;1.23;;;-0.10;99.90;;;;;;5031500;28;20024;-70
2024/01/17 05:38:55;;;;;;;1.15;0.75;;;-0.30;99.90;;;;;;5020171;28;20480;-70
2024/01/17 05:41:20;;;;;;;1.13;0.70;;;-0.40;99.90;;;;;;5015435;28;20060;-69
2024/01/17 05:43:46;;;;;;;1.80;1.70;;;-0.30;99.90;;;;;;5033381;28;20524;-69
2024/01/17 05:46:12;;;;;;;0.55;0.55;;;-0.30;99.90;;;;;;5032937;28;20057;-70
2024/01/17 05:48:39;;;;;;;0.77;0.77;;;-0.30;99.90;;;;;;5033029;28;20047;-70
2024/01/17 05:51:06;;;;;;;6.35;2.30;;;-0.40;99.90;;;;;;5033217;28;20020;-69
2024/01/17 05:53:31;;;;;;;0.38;0.38;;;-0.20;99.90;;;;;;5032960;28;20076;-70
2024/01/17 05:55:57;;;;;;;0.55;0.55;;;-0.10;99.90;;;;;;5033341;28;20471;-70
2024/01/17 05:58:23;;;;;;;0.45;0.45;;;0.00;99.90;;;;;;5031629;28;20021;-70
2024/01/17 06:00:49;;;;;;;0.35;0.35;;;0.00;99.90;;;;;;5025540;28;20458;-70
2024/01/17 06:03:15;;;;;;;0.10;0.10;;;0.10;99.90;;;;;;5014636;28;20036;-70
2024/01/17 06:05:41;;;;;;;0.20;0.20;;;0.20;99.90;;;;;;5013045;28;20054;-70
2024/01/17 06:08:07;;;;;;;0.22;0.22;;;0.20;99.90;;;;;;5012738;28;20066;-70
2024/01/17 06:10:34;;;;;;;0.43;0.43;;;0.30;99.90;;;;;;5013477;28;20406;-69
2024/01/17 06:13:00;;;;;;;1.17;0.75;;;0.20;99.90;;;;;;5011696;28;20034;-70
2024/01/17 06:15:25;;;;;;;0.05;0.05;;;0.10;99.90;;;;;;5028550;28;20083;-69
2024/01/17 06:17:51;;;;;;;0.55;0.55;;;0.00;99.90;;;;;;5032716;28;20017;-71
2024/01/17 06:20:17;;;;;;;1.08;1.08;;;-0.10;99.90;;;;;;5032964;28;20106;-69
2024/01/17 06:22:43;;;;;;;3.47;3.17;;;-0.10;99.90;;;;;;5032691;28;20350;-69
2024/01/17 06:25:09;;;;;;;1.90;1.05;;;-0.10;99.90;;;;;;5032888;28;20450;-69
2024/01/17 06:27:34;;;;;;;1.77;1.10;;;-0.10;99.90;;;;;;5031193;28;20474;-69
2024/01/17 06:30:00;;;;;;;2.58;2.38;;;-0.10;99.90;;;;;;5032529;28;20048;-70
2024/01/17 06:32:26;;;;;;;0.30;0.30;;;-0.10;99.90;;;;;;5032523;28;20022;-69
2024/01/17 06:34:53;;;;;;;0.20;0.20;;;0.00;99.90;;;;;;5031425;28;20029;-70
2024/01/17 06:37:18;;;;;;;0.25;0.25;;;0.00;99.90;;;;;;5032626;28;20080;-70
2024/01/17 06:39:44;;;;;;;0.55;0.55;;;0.00;99.90;;;;;;5032641;28;20386;-70
2024/01/17 06:42:10;;;;;;;0.25;0.25;;;0.00;99.90;;;;;;5032569;28;20033;-69
2024/01/17 06:44:37;;;;;;;0.10;0.10;;;-0.10;99.90;;;;;;5032134;28;20009;-70
2024/01/17 06:47:03;;;;;;;0.10;0.10;;;-0.10;99.90;;;;;;5032598;28;20111;-70
2024/01/17 06:49:29;;;;;;;2.75;1.95;;;0.00;99.90;;;;;;5018339;28;20053;-69
2024/01/17 06:51:56;;;;;;;6.30;5.90;;;0.10;99.90;;;;;;5032438;28;20466;-71
2024/01/17 06:54:22;;;;;;;0.10;0.10;;;0.30;99.90;;;;;;5032524;28;20041;-70
2024/01/17 06:56:48;;;;;;;0.10;0.10;;;0.30;99.90;;;;;;5032645;28;20030;-70
2024/01/17 06:59:14;;;;;;;0.08;0.08;;;0.40;99.90;;;;;;5030880;28;20048;-70
2024/01/17 07:01:40;;;;;;;0.10;0.10;;;0.30;99.90;;;;;;5032428;28;20108;-70
2024/01/17 07:04:06;;;;;;;0.10;0.10;;;0.30;99.90;;;;;;5032259;28;20032;-70
2024/01/17 07:06:32;;;;;;;0.00;0.00;;;0.30;99.90;;;;;;5031028;28;20026;-70
2024/01/17 07:08:59;;;;;;;0.10;0.10;;;0.40;99.90;;;;;;5032014;28;20552;-70
2024/01/17 07:11:25;;;;;;;0.00;0.00;;;0.40;99.90;;;;;;5033683;28;20028;-70
2024/01/17 07:13:50;;;;;;;0.00;0.00;;;0.40;99.90;;;;;;5034443;28;20030;-69
2024/01/17 07:16:16;;;;;;;2.92;0.90;;;0.40;99.90;;;;;;5036130;28;20029;-70
2024/01/17 07:18:42;;;;;;;0.00;0.00;;;0.50;99.90;;;;;;5035627;28;20024;-70
2024/01/17 07:21:08;;;;;;;0.10;0.10;;;0.50;99.90;;;;;;5036034;28;20394;-71
2024/01/17 07:23:36;;;;;;;0.08;0.08;;;0.50;99.90;;;;;;5035948;28;20025;-70
2024/01/17 07:26:03;;;;;;;0.00;0.00;;;0.40;99.90;;;;;;5035636;28;20497;-69
2024/01/17 07:28:30;;;;;;;0.10;0.10;;;0.50;99.90;;;;;;5036189;28;20037;-70
2024/01/17 07:30:56;;;;;;;0.10;0.10;;;0.50;99.90;;;;;;5035425;28;20478;-70
2024/01/17 07:33:22;;;;;;;1.40;1.30;;;0.50;99.90;;;;;;5035613;28;20034;-69
2024/01/17 07:35:47;;;;;;;0.10;0.10;;;0.50;99.90;;;;;;5035474;28;20025;-69
2024/01/17 07:38:14;;;;;;;0.25;0.25;;;0.40;99.90;;;;;;5035603;28;20045;-70
2024/01/17 07:40:41;;;;;;;0.10;0.10;;;0.40;99.90;;;;;;5035304;28;20378;-70
2024/01/17 07:43:07;;;;;;;0.30;0.30;;;0.50;99.90;;;;;;5035099;28;20034;-70
2024/01/17 07:45:33;;;;;;;2.15;2.00;;;0.40;99.90;;;;;;5035569;28;20064;-70
2024/01/17 07:47:59;;;;;;;0.10;0.10;;;0.50;99.90;;;;;;5035176;28;20054;-70
2024/01/17 07:50:26;;;;;;;0.52;0.45;;;0.50;99.90;;;;;;5035410;28;20368;-70
2024/01/17 07:52:52;;;;;;;1.58;1.48;;;0.50;99.90;;;;;;5033860;28;20506;-69
2024/01/17 07:55:18;;;;;;;0.55;0.55;;;0.60;99.90;;;;;;5034702;28;20163;-69
2024/01/17 07:57:44;;;;;;;0.00;0.00;;;0.60;99.90;;;;;;5034312;28;20022;-69
2024/01/17 08:00:11;;;;;;;0.20;0.20;;;0.70;99.90;;;;;;5034413;28;20043;-70
2024/01/17 08:02:40;;;;;;;0.25;0.25;;;0.80;99.90;;;;;;5035020;28;20109;-71
2024/01/17 08:05:06;;;;;;;0.10;0.10;;;0.60;99.90;;;;;;5034761;28;20045;-70
2024/01/17 08:07:33;;;;;;;2.15;2.05;;;0.60;99.90;;;;;;5034848;28;20131;-69
2024/01/17 08:09:58;;;;;;;0.25;0.25;;;0.80;99.90;;;;;;5034492;28;20036;-70
2024/01/17 08:12:24;;;;;;;0.28;0.28;;;0.80;99.90;;;;;;5030829;28;20471;-71
2024/01/17 08:14:50;;;;;;;0.00;0.00;;;0.70;99.90;;;;;;5019509;28;20044;-70
2024/01/17 08:17:16;;;;;;;0.10;0.10;;;0.70;99.90;;;;;;5019961;28;20406;-70
2024/01/17 08:19:42;;;;;;;0.08;0.08;;;0.80;99.90;;;;;;5015796;28;20371;-69
2024/01/17 08:22:09;;;;;;;0.28;0.28;;;0.90;99.90;;;;;;5015258;28;20022;-69
2024/01/17 08:24:35;;;;;;;2.22;1.20;;;0.90;99.90;;;;;;5024875;28;20383;-70
2024/01/17 08:27:01;;;;;;;0.10;0.10;;;0.80;99.90;;;;;;5014460;28;20038;-70
2024/01/17 08:29:27;;;;;;;0.75;0.75;;;0.80;99.90;;;;;;5016826;28;20566;-70
2024/01/17 08:31:53;;;;;;;0.20;0.20;;;0.80;99.90;;;;;;5005300;28;20116;-69
2024/01/17 08:34:20;;;;;;;0.00;0.00;;;0.80;99.90;;;;;;5017342;28;20037;-69
2024/01/17 08:36:47;;;;;;;0.10;0.10;;;0.80;99.90;;;;;;5022685;28;20026;-69
2024/01/17 08:39:13;;;;;;;3.20;1.63;;;0.70;99.90;;;;;;5027694;28;20030;-71
2024/01/17 08:41:45;;;;;;;0.30;0.30;;;0.60;99.90;;;;;;5013631;28;20022;-70
2024/01/17 08:44:15;;;;;;;0.10;0.10;;;0.80;99.90;;;;;;5021425;28;20076;-71
2024/01/17 08:46:45;;;;;;;0.10;0.10;;;0.70;99.90;;;;;;5023439;28;20109;-70
2024/01/17 08:49:11;;;;;;;3.38;1.23;;;0.70;99.90;;;;;;5027107;28;20049;-69
2024/01/17 08:51:36;;;;;;;0.00;0.00;;;0.70;99.90;;;;;;5018122;28;20029;-69
2024/01/17 08:54:05;;;;;;;0.10;0.10;;;0.70;99.90;;;;;;5013500;28;20052;-70
2024/01/17 08:56:32;;;;;;;0.10;0.10;;;0.60;99.90;;;;;;5017268;28;20022;-73
2024/01/17 08:58:58;;;;;;;1.48;0.75;;;0.70;99.90;;;;;;5021008;28;20038;-69
2024/01/17 09:01:24;;;;;;;0.30;0.30;;;0.80;99.90;;;;;;5015901;28;20379;-69
2024/01/17 09:03:52;;;;;;;1.35;1.23;;;0.70;99.90;;;;;;5013731;28;20498;-69
2024/01/17 09:06:18;;;;;;;1.75;0.60;;;0.80;99.90;;;;;;5019804;28;20013;-70
2024/01/17 09:08:44;;;;;;;6.50;1.98;;;1.00;99.90;;;;;;5019973;28;20055;-68
2024/01/17 09:11:10;;;;;;;1.70;1.05;;;0.90;99.90;;;;;;5019034;28;20026;-69
2024/01/17 09:13:36;;;;;;;0.25;0.25;;;0.90;99.90;;;;;;5017513;28;20030;-69
2024/01/17 09:16:02;;;;;;;2.30;2.05;;;0.90;99.90;;;;;;5028061;28;20033;-70
2024/01/17 09:18:28;;;;;;;0.45;0.43;;;0.90;99.90;;;;;;5013199;28;20032;-69
2024/01/17 09:20:54;;;;;;;0.00;0.00;;;0.90;99.90;;;;;;5019820;28;20038;-71
2024/01/17 09:23:19;;;;;;;0.22;0.22;;;0.90;99.90;;;;;;5023711;28;20040;-70
2024/01/17 09:25:45;;;;;;;0.55;0.55;;;0.90;99.90;;;;;;5014039;28;20395;-70
2024/01/17 09:28:11;;;;;;;0.10;0.10;;;1.00;99.90;;;;;;5014677;28;20105;-69
2024/01/17 09:30:37;;;;;;;0.08;0.08;;;1.10;99.90;;;;;;5012637;28;20118;-72
2024/01/17 09:33:03;;;;;;;0.15;0.15;;;1.10;99.90;;;;;;5019904;28;20104;-69
2024/01/17 09:35:34;;;;;;;0.75;0.75;;;1.10;99.90;;;;;;5015639;28;20044;-71
2024/01/17 09:38:01;;;;;;;1.02;0.77;;;1.10;99.90;;;;;;5026325;28;20044;-71
2024/01/17 09:40:26;;;;;;;1.70;1.15;;;1.20;99.90;;;;;;5012714;28;20021;-70
2024/01/17 09:42:53;;;;;;;0.00;0.00;;;1.00;99.90;;;;;;5013702;28;20041;-69
2024/01/17 09:45:22;;;;;;;1.90;1.15;;;0.70;99.90;;;;;;5011620;28;20029;-69
2024/01/17 09:47:51;;;;;;;3.05;1.80;;;0.60;99.90;;;;;;5012418;28;20033;-69
2024/01/17 09:50:17;;;;;;;0.65;0.65;;;0.50;99.90;;;;;;5011551;28;20034;-69
2024/01/17 09:52:43;;;;;;;0.20;0.20;;;0.60;99.90;;;;;;5012100;28;20080;-69
2024/01/17 09:55:09;;;;;;;1.90;1.35;;;0.50;99.90;;;;;;5011897;28;20030;-69
2024/01/17 09:57:45;;;;;;;1.63;1.52;;;0.60;99.90;;;;;;5012276;28;20038;-69
2024/01/17 10:00:11;;;;;;;0.77;0.77;;;0.70;99.90;;;;;;5011261;28;20025;-69
2024/01/17 10:02:38;;;;;;;1.80;0.80;;;0.70;99.90;;;;;;5012400;28;20510;-71
2024/01/17 10:05:11;;;;;;;0.13;0.13;;;0.80;99.90;;;;;;5013587;28;20014;-68
2024/01/17 10:07:37;;;;;;;0.43;0.43;;;0.80;99.90;;;;;;5011905;28;20336;-70
2024/01/17 10:10:04;;;;;;;0.10;0.10;;;0.90;99.90;;;;;;5012171;28;20048;-70
2024/01/17 10:12:30;;;;;;;0.08;0.08;;;0.90;99.90;;;;;;5010915;28;20503;-71
2024/01/17 10:14:56;;;;;;;0.10;0.10;;;0.90;99.90;;;;;;5022749;28;20425;-70
2024/01/17 10:17:22;;;;;;;3.72;3.30;;;1.00;99.90;;;;;;5017817;28;20025;-70
2024/01/17 10:19:47;;;;;;;0.88;0.88;;;1.10;99.90;;;;;;5013075;28;20026;-69
2024/01/17 10:22:14;;;;;;;0.52;0.52;;;1.00;99.90;;;;;;5021331;28;20033;-69
2024/01/17 10:24:40;;;;;;;4.70;1.60;;;1.00;99.90;;;;;;5018964;28;20025;-69
2024/01/17 10:27:06;;;;;;;1.02;0.50;;;1.00;99.90;;;;;;5018276;28;20485;-69
2024/01/17 10:29:37;;;;;;;0.82;0.57;;;0.90;99.90;;;;;;5014742;28;20041;-69
2024/01/17 10:32:03;;;;;;;1.20;0.50;;;1.00;99.90;;;;;;5019879;28;20026;-70
2024/01/17 10:34:33;;;;;;;0.13;0.13;;;1.10;99.90;;;;;;5016831;28;20381;-69
2024/01/17 10:37:02;;;;;;;8.85;8.20;;;1.20;99.90;;;;;;5018382;28;20026;-69
2024/01/17 10:39:29;;;;;;;6.65;0.68;;;1.20;99.90;;;;;;5015623;28;20021;-70
2024/01/17 10:41:56;;;;;;;0.77;0.77;;;1.20;99.90;;;;;;5012365;28;20033;-69
2024/01/17 10:44:25;;;;;;;0.47;0.47;;;1.30;99.90;;;;;;5020590;28;20391;-69
2024/01/17 10:46:51;;;;;;;0.00;0.00;;;1.40;99.90;;;;;;5024553;28;20025;-69
2024/01/17 10:49:18;;;;;;;0.10;0.10;;;1.50;99.90;;;;;;5020422;28;20092;-70
2024/01/17 10:51:53;;;;;;;1.13;1.05;;;1.40;99.90;;;;;;5020928;28;20030;-68
2024/01/17 10:54:26;;;;;;;4.63;2.13;;;1.20;99.90;;;;;;5034819;28;20030;-70
2024/01/17 10:56:54;;;;;;;1.25;0.57;;;1.20;99.90;;;;;;5036702;28;20346;-69
2024/01/17 10:59:21;;;;;;;3.15;1.25;;;1.20;99.90;;;;;;5036016;28;20033;-69
2024/01/17 11:01:51;;;;;;;2.65;1.27;;;1.40;99.90;;;;;;5034773;28;20041;-69
2024/01/17 11:04:25;;;;;;;1.35;0.30;;;1.20;99.90;;;;;;5036261;28;20025;-69
2024/01/17 11:06:51;;;;;;;0.10;0.10;;;1.20;99.90;;;;;;5035977;28;20131;-69
2024/01/17 11:09:19;;;;;;;0.10;0.10;;;1.30;99.90;;;;;;5036088;28;20029;-69
2024/01/17 11:11:47;;;;;;;7.57;2.63;;;1.30;99.90;;;;;;5036046;28;20036;-69
2024/01/17 11:14:15;;;;;;;1.75;1.65;;;1.30;99.90;;;;;;5035766;28;20065;-69
2024/01/17 11:16:46;;;;;;;5.97;1.98;;;1.10;99.90;;;;;;5036168;28;20025;-68
2024/01/17 11:19:14;;;;;;;0.10;0.10;;;1.20;99.90;;;;;;5035689;28;20036;-70
2024/01/17 11:21:40;;;;;;;0.75;0.75;;;1.10;99.90;;;;;;5035518;28;20482;-69
2024/01/17 11:24:36;;;;;;;0.10;0.10;;;1.30;99.90;;;;;;5035942;28;20044;-69
2024/01/17 11:27:12;;;;;;;0.63;0.63;;;1.40;99.90;;;;;;5018146;28;20034;-69
2024/01/17 11:29:51;;;;;;;0.10;0.10;;;1.60;99.90;;;;;;5010663;28;20040;-69
2024/01/17 11:32:28;;;;;;;0.10;0.10;;;1.60;99.90;;;;;;5015647;28;20032;-67
2024/01/17 11:34:53;;;;;;;1.75;1.65;;;1.70;99.90;;;;;;5014652;28;20467;-69
2024/01/17 11:37:38;;;;;;;0.22;0.22;;;1.80;99.90;;;;;;5024061;22;20044;-68
2024/01/17 11:40:05;;;;;;;0.08;0.08;;;1.80;99.90;;;;;;5036464;28;20033;-67
2024/01/17 11:42:34;;;;;;;0.10;0.10;;;1.80;99.90;;;;;;5035663;28;20041;-67
2024/01/17 11:45:03;;;;;;;0.10;0.10;;;1.90;99.90;;;;;;5041959;28;20351;-68
2024/01/17 11:47:29;;;;;;;0.00;0.00;;;2.00;99.90;;;;;;5041604;28;20061;-69
2024/01/17 11:49:57;;;;;;;0.00;0.00;;;1.90;99.90;;;;;;5033895;28;20185;-68
2024/01/17 11:52:45;;;;;;;0.00;0.00;;;2.00;99.90;;;;;;5035437;28;20028;-68
2024/01/17 11:55:12;;;;;;;0.00;0.00;;;2.20;99.90;;;;;;5036072;28;20030;-72
2024/01/17 11:57:37;;;;;;;7.05;0.65;;;2.20;99.90;;;;;;5032021;28;20025;-68
2024/01/17 12:00:12;;;;;;;0.10;0.10;;;2.20;99.90;;;;;;5036115;28;20163;-69
2024/01/17 12:02:43;;;;;;;2.17;1.95;;;2.20;99.90;;;;;;5040720;28;20064;-69
2024/01/17 12:05:12;;;;;;;0.70;0.70;;;2.10;99.90;;;;;;5027320;28;20570;-70
2024/01/17 12:07:42;;;;;;;0.10;0.10;;;2.30;99.90;;;;;;5024566;28;20433;-69
2024/01/17 12:10:09;;;;;;;0.00;0.00;;;2.20;99.90;;;;;;5038603;28;20037;-69
2024/01/17 12:12:42;;;;;;;1.15;1.05;;;2.20;99.90;;;;;;5029952;28;20071;-69
2024/01/17 12:15:12;;;;;;;0.15;0.15;;;2.10;99.90;;;;;;5021322;28;20038;-69
2024/01/17 12:17:39;;;;;;;0.00;0.00;;;2.20;99.90;;;;;;5021908;28;20055;-68
2024/01/17 12:20:08;;;;;;;2.42;1.55;;;2.40;99.90;;;;;;5043883;28;20025;-70
2024/01/17 12:22:34;;;;;;;0.10;0.10;;;2.50;99.90;;;;;;5029682;28;20041;-71
2024/01/17 12:25:01;;;;;;;0.00;0.00;;;2.40;99.90;;;;;;5028567;28;20034;-70
2024/01/17 12:27:31;;;;;;;0.10;0.10;;;2.40;99.90;;;;;;5022452;28;20041;-71
2024/01/17 12:30:05;;;;;;;0.10;0.10;;;2.50;99.90;;;;;;5046935;28;20033;-69
2024/01/17 12:32:31;;;;;;;1.20;0.77;;;2.50;99.90;;;;;;5042774;28;20025;-70
2024/01/17 12:34:57;;;;;;;0.22;0.22;;;2.90;99.90;;;;;;5032357;28;20025;-70
2024/01/17 12:37:23;;;;;;;0.98;0.98;;;3.00;99.90;;;;;;5034273;28;20021;-69
2024/01/17 12:39:49;;;;;;;0.47;0.47;;;2.90;99.90;;;;;;5027274;28;20053;-69
2024/01/17 12:42:16;;;;;;;0.00;0.00;;;2.90;99.90;;;;;;5033205;28;20049;-70
2024/01/17 12:44:43;;;;;;;2.10;2.00;;;2.80;99.90;;;;;;5041777;28;20030;-70
2024/01/17 12:47:10;;;;;;;0.00;0.00;;;2.80;99.90;;;;;;5035879;28;20045;-70
2024/01/17 12:49:37;;;;;;;0.10;0.10;;;2.70;99.90;;;;;;5035485;28;20037;-69
2024/01/17 12:52:04;;;;;;;0.40;0.40;;;2.70;99.90;;;;;;5038414;28;20130;-70